Maestro Ocean — V7ET7 — position and weather

sailwx.info

Track history (hours):
 
Tides and Currents Weather Stations Pressure Air Temp Water Temp Dewpoint Dewpoint Depression Visibility Wind Speed Wind Dir Waves Ship Positions

Maestro Ocean

Last reported at 2017-Nov-16 01:32 UTC. Time now 2017-Nov-18 19:40 UTC.
Position N 45°13' W 074°18'.

Length 160 m; draft 4 m.

Type: Cargo ship. MMSI: 538001860.

Date/timePositionNaut miles runAvg speedWind from/ knotsBaromVisibWave heightAir tempDewpointWater temp
2017-Nov-16 01:32N 45°13' W 074°18'710.8
2017-Nov-16 00:54N 45°14' W 074°08'4 8.9
2017-Nov-16 00:24N 45°13' W 074°02'4 9.5
2017-Nov-16 00:00N 45°16' W 073°58'3 6.0
2017-Nov-15 23:30N 45°18' W 073°56'1 1.0
2017-Nov-15 23:00N 45°19' W 073°55'0 0.7
2017-Nov-15 22:30N 45°19' W 073°55'1 2.6
2017-Nov-15 22:00N 45°20' W 073°54'5 9.8
2017-Nov-15 21:30N 45°23' W 073°48'5 9.2
2017-Nov-15 21:00N 45°25' W 073°42'3 6.1
2017-Nov-15 20:30N 45°24' W 073°38'3 5.7
2017-Nov-15 20:00N 45°24' W 073°34'0 0.7
2017-Nov-15 19:30N 45°24' W 073°33'2 4.4
2017-Nov-15 19:00N 45°25' W 073°31'3 7.1
2017-Nov-15 18:30N 45°29' W 073°31'1 1.6
2017-Nov-15 17:43N 45°30' W 073°31'1 2.3
2017-Nov-15 17:07N 45°31' W 073°32'4 0.4
2017-Nov-15 07:00N 45°35' W 073°30'5 5.8
2017-Nov-15 06:06N 45°40' W 073°28'  
Track history (hours):
 
Tides and Currents Weather Stations Pressure Air Temp Water Temp Dewpoint Dewpoint Depression Visibility Wind Speed Wind Dir Waves Ship Positions

Maestro Ocean

Last reported at 2017-Nov-16 01:32 UTC. Time now 2017-Nov-18 19:40 UTC.
Position N 45°13' W 074°18'.

Length 160 m; draft 4 m.

Type: Cargo ship. MMSI: 538001860.

Date/timePositionNaut miles runAvg speedWind from/ knotsBaromVisibWave heightAir tempDewpointWater temp
2017-Nov-16 01:32N 45°13' W 074°18'710.8
2017-Nov-16 00:54N 45°14' W 074°08'4 8.9
2017-Nov-16 00:24N 45°13' W 074°02'4 9.5
2017-Nov-16 00:00N 45°16' W 073°58'3 6.0
2017-Nov-15 23:30N 45°18' W 073°56'1 1.0
2017-Nov-15 23:00N 45°19' W 073°55'0 0.7
2017-Nov-15 22:30N 45°19' W 073°55'1 2.6
2017-Nov-15 22:00N 45°20' W 073°54'5 9.8
2017-Nov-15 21:30N 45°23' W 073°48'5 9.2
2017-Nov-15 21:00N 45°25' W 073°42'3 6.1
2017-Nov-15 20:30N 45°24' W 073°38'3 5.7
2017-Nov-15 20:00N 45°24' W 073°34'0 0.7
2017-Nov-15 19:30N 45°24' W 073°33'2 4.4
2017-Nov-15 19:00N 45°25' W 073°31'3 7.1
2017-Nov-15 18:30N 45°29' W 073°31'1 1.6
2017-Nov-15 17:43N 45°30' W 073°31'1 2.3
2017-Nov-15 17:07N 45°31' W 073°32'4 0.4
2017-Nov-15 07:00N 45°35' W 073°30'5 5.8
2017-Nov-15 06:06N 45°40' W 073°28'  

Dump ship's entire track history